createdAt,value
2019-01-02T00:00:58.959Z,79.87
2019-01-02T00:03:28.870Z,79.41
2019-01-02T00:05:59.175Z,79.02
2019-01-02T00:08:29.102Z,79.43
2019-01-02T00:10:59.024Z,78.90
2019-01-02T00:13:29.431Z,78.54
2019-01-02T00:15:59.397Z,78.89
2019-01-02T00:18:29.733Z,79.01
2019-01-02T00:20:59.622Z,79.64
2019-01-02T00:23:29.872Z,79.00
2019-01-02T00:25:59.792Z,78.67
2019-01-02T00:28:29.753Z,78.76
2019-01-02T00:30:59.622Z,79.65
2019-01-02T00:33:29.554Z,78.99
2019-01-02T00:35:59.939Z,79.12
2019-01-02T00:38:29.771Z,79.76
2019-01-02T00:41:00.018Z,79.05
2019-01-02T00:43:29.828Z,78.88
2019-01-02T00:45:59.966Z,77.56
2019-01-02T00:48:30.769Z,77.44
2019-01-02T00:51:00.999Z,76.54
2019-01-02T00:53:30.881Z,76.83
2019-01-02T00:56:02.265Z,76.90
2019-01-02T00:58:32.364Z,77.31
2019-01-02T01:01:02.852Z,76.16
2019-01-02T01:03:32.771Z,74.15
2019-01-02T01:08:38.027Z,74.93
2019-01-02T01:11:08.711Z,74.94
2019-01-02T01:13:38.596Z,73.85
2019-01-02T01:16:08.596Z,73.81
2019-01-02T01:18:38.601Z,73.88
2019-01-02T01:21:08.581Z,73.64
2019-01-02T01:23:38.445Z,73.15
2019-01-02T01:26:08.282Z,71.86
2019-01-02T01:28:38.539Z,73.01
2019-01-02T01:31:08.375Z,73.08
2019-01-02T01:33:38.222Z,72.63
2019-01-02T01:36:08.413Z,72.02
2019-01-02T01:38:39.203Z,71.87
2019-01-02T01:41:09.194Z,72.69
2019-01-02T01:43:39.240Z,72.58
2019-01-02T01:46:09.255Z,72.22
2019-01-02T01:48:39.468Z,73.14
2019-01-02T01:51:09.361Z,72.93
2019-01-02T01:53:39.390Z,72.11
2019-01-02T01:56:09.682Z,73.15
2019-01-02T01:58:39.654Z,72.68
2019-01-02T02:01:09.593Z,71.96
2019-01-02T02:03:39.419Z,71.61
2019-01-02T02:06:09.357Z,70.97
2019-01-02T02:08:39.623Z,70.99
2019-01-02T02:11:09.469Z,70.79
2019-01-02T02:13:39.441Z,69.65
2019-01-02T02:16:09.657Z,70.30
2019-01-02T02:18:39.632Z,72.31
2019-01-02T02:21:09.780Z,75.30
2019-01-02T02:23:39.673Z,77.93
2019-01-02T02:26:09.692Z,66.31
2019-01-02T02:28:39.994Z,74.39
2019-01-02T02:31:10.113Z,73.02
2019-01-02T02:33:40.448Z,74.18
2019-01-02T02:36:10.761Z,77.67
2019-01-02T02:38:41.011Z,76.45
2019-01-02T02:41:11.313Z,76.98
2019-01-02T02:43:41.562Z,77.79
2019-01-02T02:46:11.520Z,76.59
2019-01-02T02:48:41.462Z,78.08
2019-01-02T02:51:11.593Z,75.20
2019-01-02T02:53:41.988Z,77.20
2019-01-02T02:56:12.341Z,74.93
2019-01-02T02:58:42.486Z,77.08
2019-01-02T03:01:12.861Z,77.30
2019-01-02T03:03:43.083Z,76.79
2019-01-02T03:06:13.315Z,75.93
2019-01-02T03:08:43.267Z,70.78
2019-01-02T03:11:13.220Z,71.66
2019-01-02T03:13:43.578Z,76.54
2019-01-02T03:16:13.576Z,80.56
2019-01-02T03:18:43.625Z,78.06
2019-01-02T03:21:13.883Z,78.67
2019-01-02T03:23:44.392Z,77.70
2019-01-02T03:26:14.215Z,77.63
2019-01-02T03:28:44.175Z,77.08
2019-01-02T03:31:14.415Z,77.20
2019-01-02T03:33:44.443Z,75.30
2019-01-02T03:36:14.372Z,74.93
2019-01-02T03:38:44.256Z,74.43
2019-01-02T03:41:14.213Z,74.10
2019-01-02T03:43:44.204Z,74.28
2019-01-02T03:46:14.248Z,73.15
2019-01-02T03:48:44.186Z,71.82
2019-01-02T03:51:14.172Z,71.18
2019-01-02T03:53:44.155Z,72.27
2019-01-02T03:56:14.151Z,70.05
2019-01-02T03:58:44.149Z,70.24
2019-01-02T04:01:14.201Z,70.94
2019-01-02T04:03:44.159Z,70.62
2019-01-02T04:06:14.180Z,78.15
2019-01-02T04:08:44.076Z,78.88
2019-01-02T04:11:14.016Z,79.54
2019-01-02T04:13:43.914Z,79.24
2019-01-02T04:16:14.561Z,78.85
2019-01-02T04:18:44.377Z,78.45
2019-01-02T04:21:14.283Z,79.06
2019-01-02T04:23:44.143Z,78.59
2019-01-02T04:26:14.000Z,79.62
2019-01-02T04:28:45.187Z,79.22
2019-01-02T04:31:15.133Z,78.92
2019-01-02T04:33:44.977Z,76.86
2019-01-02T04:36:14.994Z,76.17
2019-01-02T04:38:44.912Z,75.11
2019-01-02T04:41:14.954Z,76.15
2019-01-02T04:43:44.820Z,76.25
2019-01-02T04:46:14.713Z,76.20
2019-01-02T04:48:44.650Z,76.51
2019-01-02T04:51:14.572Z,76.55
2019-01-02T04:53:44.444Z,77.49
2019-01-02T04:56:14.508Z,77.66
2019-01-02T04:58:44.364Z,76.37
2019-01-02T05:01:14.352Z,75.01
2019-01-02T05:03:44.291Z,75.43
2019-01-02T05:06:14.153Z,76.92
2019-01-02T05:08:44.025Z,76.24
2019-01-02T05:11:13.934Z,77.47
2019-01-02T05:13:43.882Z,75.73
2019-01-02T05:16:13.780Z,77.19
2019-01-02T05:18:43.656Z,75.57
2019-01-02T05:21:14.677Z,73.73
2019-01-02T05:23:44.559Z,73.20
2019-01-02T05:26:14.378Z,74.84
2019-01-02T05:28:44.267Z,74.97
2019-01-02T05:31:14.154Z,75.20
2019-01-02T05:33:44.110Z,75.56
2019-01-02T05:36:13.941Z,74.55
2019-01-02T05:38:43.922Z,72.67
2019-01-02T05:41:13.832Z,73.23
2019-01-02T05:43:43.728Z,74.48
2019-01-02T05:46:13.602Z,73.42
2019-01-02T05:48:43.514Z,71.88
2019-01-02T05:51:13.555Z,71.63
2019-01-02T05:53:43.555Z,71.66
2019-01-02T05:56:13.600Z,71.50
2019-01-02T05:58:43.483Z,71.63
2019-01-02T06:01:13.410Z,71.49
2019-01-02T06:03:43.381Z,73.06
2019-01-02T06:06:13.292Z,71.92
2019-01-02T06:08:43.168Z,71.47
2019-01-02T06:11:13.132Z,70.87
2019-01-02T06:13:43.058Z,71.83
2019-01-02T06:16:13.249Z,72.33
2019-01-02T06:18:43.107Z,73.46
2019-01-02T06:21:13.014Z,74.40
2019-01-02T06:23:42.896Z,75.30
2019-01-02T06:26:12.873Z,71.30
2019-01-02T06:28:42.911Z,74.88
2019-01-02T06:31:12.906Z,74.78
2019-01-02T06:33:42.896Z,74.78
2019-01-02T06:36:12.816Z,74.86
2019-01-02T06:38:42.706Z,74.19
2019-01-02T06:41:12.646Z,74.31
2019-01-02T06:43:42.474Z,73.64
2019-01-02T06:46:12.429Z,75.52
2019-01-02T06:48:42.336Z,74.85
2019-01-02T06:53:50.430Z,73.34
2019-01-02T06:56:20.436Z,73.41
2019-01-02T06:58:50.290Z,73.90
2019-01-02T07:01:20.176Z,74.63
2019-01-02T07:03:50.063Z,75.10
2019-01-02T07:06:19.973Z,75.07
2019-01-02T07:08:49.883Z,74.11
2019-01-02T07:11:19.810Z,74.22
2019-01-02T07:13:49.762Z,73.90
2019-01-02T07:16:19.678Z,73.33
2019-01-02T07:18:49.568Z,73.61
2019-01-02T07:21:19.411Z,74.13
2019-01-02T07:23:49.436Z,73.84
2019-01-02T07:26:19.348Z,72.81
2019-01-02T07:28:49.220Z,72.83
2019-01-02T07:31:19.147Z,73.26
2019-01-02T07:34:04.073Z,73.58
2019-01-02T07:37:21.152Z,73.23
2019-01-02T07:40:11.096Z,73.42
2019-01-02T07:43:09.938Z,72.89
2019-01-02T07:46:16.807Z,71.54
2019-01-02T07:49:33.044Z,72.23
2019-01-02T07:53:02.171Z,73.19
2019-01-02T07:56:26.968Z,72.39
2019-01-02T07:59:42.705Z,72.06
2019-01-02T08:02:54.690Z,72.97
2019-01-02T08:06:08.804Z,73.86
2019-01-02T08:09:19.111Z,75.49
2019-01-02T08:12:06.293Z,75.58
2019-01-02T08:15:28.628Z,74.05
2019-01-02T08:18:27.380Z,73.30
2019-01-02T08:21:50.407Z,72.90
2019-01-02T08:25:00.527Z,72.39
2019-01-02T08:27:48.445Z,74.07
2019-01-02T08:30:46.883Z,74.79
2019-01-02T08:33:45.011Z,74.99
2019-01-02T08:36:40.168Z,74.23
2019-01-02T08:39:50.162Z,75.01
2019-01-02T08:43:12.308Z,74.69
2019-01-02T08:46:20.513Z,75.60
2019-01-02T08:49:06.841Z,74.69
2019-01-02T08:52:26.903Z,73.99
2019-01-02T08:55:22.737Z,74.40
2019-01-02T08:58:39.521Z,73.96
2019-01-02T09:01:35.758Z,74.11
2019-01-02T09:04:53.066Z,73.84
2019-01-02T09:08:22.441Z,74.63
2019-01-02T09:11:22.398Z,73.11
2019-01-02T09:14:29.161Z,72.84
2019-01-02T09:17:55.159Z,73.92
2019-01-02T09:20:55.178Z,74.92
2019-01-02T09:24:02.224Z,74.12
2019-01-02T09:27:20.741Z,75.75
2019-01-02T09:30:46.956Z,75.84
2019-01-02T09:33:42.210Z,75.94
2019-01-02T09:36:41.070Z,75.41
2019-01-02T09:39:26.578Z,74.93
2019-01-02T09:42:06.558Z,73.20
2019-01-02T09:45:29.825Z,73.40
2019-01-02T09:48:49.426Z,73.07
2019-01-02T09:52:07.723Z,73.25
2019-01-02T09:55:23.773Z,72.81
2019-01-02T09:58:31.020Z,73.10
2019-01-02T10:01:17.798Z,71.38
2019-01-02T10:04:33.896Z,72.96
2019-01-02T10:07:41.908Z,72.73
2019-01-02T10:11:14.433Z,72.77
2019-01-02T10:14:36.406Z,73.87
2019-01-02T10:17:50.243Z,73.81
2019-01-02T10:21:10.941Z,72.41
2019-01-02T10:24:07.446Z,72.31
2019-01-02T10:27:21.868Z,72.01
2019-01-02T10:30:21.634Z,70.98
2019-01-02T10:33:29.960Z,72.71
2019-01-02T10:36:40.271Z,71.35
2019-01-02T10:39:50.263Z,70.62
2019-01-02T10:42:52.302Z,70.76
2019-01-02T10:45:54.929Z,72.57
2019-01-02T10:48:49.159Z,71.53
2019-01-02T10:51:45.190Z,69.77
2019-01-02T10:54:59.439Z,70.38
2019-01-02T10:58:12.070Z,71.87
2019-01-02T11:01:31.310Z,69.95
2019-01-02T11:04:38.267Z,70.11
2019-01-02T11:07:48.424Z,70.04
2019-01-02T11:10:59.448Z,70.39
2019-01-02T11:14:02.631Z,69.23
2019-01-02T11:17:08.356Z,68.67
2019-01-02T11:20:31.440Z,68.51
2019-01-02T11:23:38.503Z,69.18
2019-01-02T11:27:17.828Z,67.62
2019-01-02T11:30:00.775Z,68.07
2019-01-02T11:33:05.897Z,67.46
2019-01-02T11:36:19.186Z,69.00
2019-01-02T11:39:37.902Z,70.28
2019-01-02T11:42:49.799Z,68.35
2019-01-02T11:45:22.679Z,68.76
2019-01-02T11:47:52.550Z,69.41
2019-01-02T11:50:22.492Z,69.07
2019-01-02T11:52:52.439Z,68.13
2019-01-02T11:55:22.423Z,66.70
2019-01-02T11:57:52.304Z,68.34
2019-01-02T12:00:22.318Z,68.18
2019-01-02T12:02:52.356Z,67.80
2019-01-02T12:05:22.668Z,67.10
2019-01-02T12:07:59.006Z,66.30
2019-01-02T12:10:28.898Z,65.72
2019-01-02T12:12:58.821Z,64.36
2019-01-02T12:15:28.999Z,67.46
2019-01-02T12:17:58.955Z,67.26
2019-01-02T12:20:28.850Z,67.25
2019-01-02T12:22:58.836Z,65.89
2019-01-02T12:25:28.796Z,67.41
2019-01-02T12:27:58.692Z,66.56
2019-01-02T12:30:28.767Z,65.72
2019-01-02T12:32:58.722Z,66.57
2019-01-02T12:35:28.622Z,67.45
2019-01-02T12:37:58.458Z,67.73
2019-01-02T12:40:28.433Z,66.51
2019-01-02T12:42:58.253Z,65.11
2019-01-02T12:45:28.109Z,65.75
2019-01-02T12:47:57.932Z,66.31
2019-01-02T12:50:27.888Z,65.87
2019-01-02T12:52:57.783Z,65.49
2019-01-02T12:55:27.656Z,65.35
2019-01-02T12:57:57.654Z,65.07
2019-01-02T13:00:31.160Z,65.71
2019-01-02T13:03:51.377Z,65.56
2019-01-02T13:06:51.376Z,66.33
2019-01-02T13:10:00.905Z,68.80
2019-01-02T13:13:13.661Z,68.80
2019-01-02T13:16:34.616Z,65.95
2019-01-02T13:19:29.464Z,65.74
2019-01-02T13:22:51.253Z,66.93
2019-01-02T13:25:31.354Z,71.11
2019-01-02T13:28:22.724Z,79.84
2019-01-02T13:31:23.325Z,78.08
2019-01-02T13:34:09.244Z,76.11
2019-01-02T13:37:05.198Z,76.26
2019-01-02T13:40:03.932Z,77.10
2019-01-02T13:43:10.831Z,77.52
2019-01-02T13:45:54.197Z,77.62
2019-01-02T13:49:04.355Z,77.80
2019-01-02T13:51:45.359Z,77.66
2019-01-02T13:54:15.215Z,76.63
2019-01-02T13:56:45.119Z,76.83
2019-01-02T13:59:14.996Z,77.20
2019-01-02T14:01:44.870Z,77.58
2019-01-02T14:04:14.810Z,77.64
2019-01-02T14:06:44.831Z,76.58
2019-01-02T14:09:14.668Z,76.33
2019-01-02T14:11:44.685Z,76.32
2019-01-02T14:14:14.567Z,76.28
2019-01-02T14:16:44.498Z,75.92
2019-01-02T14:19:14.325Z,75.80
2019-01-02T14:21:44.266Z,75.71
2019-01-02T14:24:14.222Z,75.06
2019-01-02T14:26:44.148Z,74.17
2019-01-02T14:29:15.935Z,74.59
2019-01-02T14:31:45.792Z,74.34
2019-01-02T14:34:15.787Z,74.01
2019-01-02T14:36:45.723Z,74.11
2019-01-02T14:39:15.624Z,72.32
2019-01-02T14:41:45.521Z,71.62
2019-01-02T14:44:15.361Z,71.54
2019-01-02T14:46:50.378Z,71.97
2019-01-02T14:49:16.878Z,71.16
2019-01-02T14:51:46.762Z,70.71
2019-01-02T14:54:16.591Z,71.13
2019-01-02T14:56:46.619Z,70.90
2019-01-02T14:59:16.499Z,70.36
2019-01-02T15:01:46.442Z,70.49
2019-01-02T15:04:16.369Z,68.58
2019-01-02T15:06:46.252Z,69.84
2019-01-02T15:09:16.127Z,71.45
2019-01-02T15:11:46.030Z,67.91
2019-01-02T15:14:15.982Z,67.26
2019-01-02T15:16:45.800Z,67.03
2019-01-02T15:19:15.747Z,69.64
2019-01-02T15:21:45.568Z,71.02
2019-01-02T15:24:15.448Z,71.13
2019-01-02T15:26:45.276Z,71.32
2019-01-02T15:29:15.220Z,69.75
2019-01-02T15:31:45.082Z,68.99
2019-01-02T15:34:14.935Z,69.01
2019-01-02T15:36:44.907Z,71.88
2019-01-02T15:39:14.984Z,73.79
2019-01-02T15:41:44.893Z,74.40
2019-01-02T15:44:15.037Z,72.65
2019-01-02T15:46:44.960Z,70.94
2019-01-02T15:49:14.889Z,69.63
2019-01-02T15:51:44.761Z,69.59
2019-01-02T15:54:14.621Z,69.12
2019-01-02T15:56:44.594Z,68.46
2019-01-02T15:59:14.586Z,67.31
2019-01-02T16:01:44.597Z,67.93
2019-01-02T16:04:14.775Z,68.62
2019-01-02T16:06:45.885Z,69.14
2019-01-02T16:09:15.786Z,70.13
2019-01-02T16:11:45.688Z,68.91
2019-01-02T16:14:17.045Z,68.58
2019-01-02T16:16:47.029Z,68.74
2019-01-02T16:19:16.957Z,69.66
2019-01-02T16:21:46.897Z,71.08
2019-01-02T16:24:17.861Z,70.53
2019-01-02T16:26:47.826Z,70.27
2019-01-02T16:29:17.747Z,69.98
2019-01-02T16:31:47.632Z,70.47
2019-01-02T16:34:17.615Z,71.09
2019-01-02T16:36:47.482Z,71.23
2019-01-02T16:39:17.354Z,72.00
2019-01-02T16:41:47.263Z,71.51
2019-01-02T16:44:17.196Z,70.58
2019-01-02T16:46:47.013Z,70.38
2019-01-02T16:49:17.056Z,69.83
2019-01-02T16:51:46.963Z,70.07
2019-01-02T16:54:16.833Z,70.39
2019-01-02T16:56:46.657Z,72.15
2019-01-02T16:59:16.505Z,71.87
2019-01-02T17:01:46.512Z,71.03
2019-01-02T17:04:16.451Z,70.28
2019-01-02T17:06:46.276Z,69.03
2019-01-02T17:09:16.291Z,68.18
2019-01-02T17:11:46.216Z,64.91
2019-01-02T17:14:16.142Z,66.20
2019-01-02T17:16:46.045Z,66.54
2019-01-02T17:19:15.917Z,66.20
2019-01-02T17:21:45.779Z,64.98
2019-01-02T17:24:15.625Z,63.84
2019-01-02T17:26:45.502Z,62.94
2019-01-02T17:29:15.463Z,64.45
2019-01-02T17:31:45.294Z,64.45
2019-01-02T17:34:15.135Z,63.84
2019-01-02T17:36:45.107Z,63.49
2019-01-02T17:39:14.953Z,63.60
2019-01-02T17:41:44.856Z,63.82
2019-01-02T17:44:14.771Z,64.21
2019-01-02T17:46:44.704Z,64.70
2019-01-02T17:49:14.569Z,65.01
2019-01-02T17:51:44.506Z,65.90
2019-01-02T17:54:14.422Z,65.66
2019-01-02T17:56:44.458Z,67.55
2019-01-02T17:59:14.471Z,66.96
2019-01-02T18:01:45.372Z,67.14
2019-01-02T18:04:15.645Z,66.51
2019-01-02T18:06:45.706Z,65.83
2019-01-02T18:09:15.618Z,64.79
2019-01-02T18:11:45.555Z,63.74
2019-01-02T18:14:15.532Z,65.69
2019-01-02T18:16:45.439Z,64.55
2019-01-02T18:19:15.304Z,64.94
2019-01-02T18:21:45.240Z,64.67
2019-01-02T18:24:15.107Z,64.39
2019-01-02T18:26:45.005Z,63.92
2019-01-02T18:29:14.896Z,65.11
2019-01-02T18:31:44.948Z,64.24
2019-01-02T18:34:14.825Z,64.78
2019-01-02T18:36:44.653Z,64.66
2019-01-02T18:39:14.670Z,64.74
2019-01-02T18:41:44.638Z,65.92
2019-01-02T18:44:20.265Z,65.60
2019-01-02T18:46:46.236Z,65.01
2019-01-02T18:49:16.183Z,64.99
2019-01-02T18:51:46.156Z,64.52
2019-01-02T18:54:16.710Z,64.95
2019-01-02T18:56:46.617Z,64.82
2019-01-02T18:59:16.480Z,64.33
2019-01-02T19:01:46.387Z,66.75
2019-01-02T19:04:16.284Z,66.44
2019-01-02T19:06:46.148Z,67.22
2019-01-02T19:09:15.972Z,67.59
2019-01-02T19:11:45.911Z,67.33
2019-01-02T19:14:15.725Z,67.45
2019-01-02T19:16:45.649Z,68.60
2019-01-02T19:19:15.486Z,68.36
2019-01-02T19:21:45.435Z,67.14
2019-01-02T19:24:15.245Z,67.86
2019-01-02T19:26:45.174Z,67.95
2019-01-02T19:31:50.177Z,67.99
2019-01-02T19:34:20.068Z,66.41
2019-01-02T19:36:50.924Z,67.87
2019-01-02T19:39:20.908Z,68.34
2019-01-02T19:41:50.853Z,68.52
2019-01-02T19:44:20.815Z,67.61
2019-01-02T19:46:50.725Z,68.17
2019-01-02T19:49:20.728Z,67.57
2019-01-02T19:51:50.724Z,66.75
2019-01-02T19:54:20.605Z,66.88
2019-01-02T19:56:50.438Z,65.94
2019-01-02T19:59:20.303Z,66.04
2019-01-02T20:01:51.141Z,65.71
2019-01-02T20:04:21.096Z,65.88
2019-01-02T20:06:50.994Z,65.97
2019-01-02T20:09:20.864Z,67.56
2019-01-02T20:11:51.219Z,66.19
2019-01-02T20:14:21.062Z,65.42
2019-01-02T20:16:50.935Z,65.26
2019-01-02T20:19:20.766Z,65.77
2019-01-02T20:21:50.622Z,66.40
2019-01-02T20:24:20.535Z,65.85
2019-01-02T20:26:55.407Z,66.11
2019-01-02T20:29:22.139Z,66.18
2019-01-02T20:31:52.088Z,66.43
2019-01-02T20:34:21.917Z,65.26
2019-01-02T20:36:51.800Z,65.63
2019-01-02T20:39:21.679Z,65.71
2019-01-02T20:41:51.632Z,66.01
2019-01-02T20:44:21.486Z,65.87
2019-01-02T20:46:51.850Z,65.63
2019-01-02T20:49:21.664Z,65.19
2019-01-02T20:51:51.608Z,65.94
2019-01-02T20:54:21.471Z,64.75
2019-01-02T20:56:51.366Z,64.21
2019-01-02T20:59:21.240Z,64.26
2019-01-02T21:01:51.212Z,62.83
2019-01-02T21:04:21.097Z,62.97
2019-01-02T21:06:50.942Z,63.49
2019-01-02T21:09:20.793Z,63.28
2019-01-02T21:11:50.681Z,64.14
2019-01-02T21:14:20.692Z,64.56
2019-01-02T21:16:50.687Z,64.42
2019-01-02T21:19:20.605Z,64.39
2019-01-02T21:21:50.539Z,64.03
2019-01-02T21:24:20.473Z,65.28
2019-01-02T21:26:50.362Z,65.41
2019-01-02T21:29:20.308Z,66.11
2019-01-02T21:31:50.131Z,65.80
2019-01-02T21:34:20.003Z,66.65
2019-01-02T21:36:49.826Z,66.63
2019-01-02T21:39:19.720Z,64.32
2019-01-02T21:41:49.550Z,64.81
2019-01-02T21:44:19.489Z,65.13
2019-01-02T21:46:49.420Z,65.41
2019-01-02T21:49:19.322Z,64.58
2019-01-02T21:51:49.192Z,65.01
2019-01-02T21:54:19.106Z,66.10
2019-01-02T21:56:49.010Z,66.56
2019-01-02T21:59:18.991Z,66.49
2019-01-02T22:01:48.931Z,66.76
2019-01-02T22:04:18.888Z,66.87
2019-01-02T22:06:48.934Z,66.71
2019-01-02T22:09:18.868Z,67.59
2019-01-02T22:11:48.723Z,66.79
2019-01-02T22:14:18.607Z,66.34
2019-01-02T22:16:48.545Z,66.31
2019-01-02T22:19:18.458Z,66.42
2019-01-02T22:21:48.473Z,66.10
2019-01-02T22:24:18.372Z,65.69
2019-01-02T22:26:48.335Z,65.60
2019-01-02T22:29:18.159Z,65.45
2019-01-02T22:31:48.489Z,65.00
2019-01-02T22:34:18.352Z,64.08
2019-01-02T22:36:48.258Z,62.02
2019-01-02T22:39:18.257Z,59.50
2019-01-02T22:41:48.185Z,62.48
2019-01-02T22:44:18.153Z,63.31
2019-01-02T22:46:48.089Z,63.05
2019-01-02T22:49:18.034Z,63.24
2019-01-02T22:51:47.887Z,63.41
2019-01-02T22:54:17.779Z,63.02
2019-01-02T22:56:47.896Z,62.86
2019-01-02T22:59:17.738Z,63.24
2019-01-02T23:01:53.407Z,62.95
2019-01-02T23:04:41.422Z,62.65
2019-01-02T23:07:22.394Z,62.89
2019-01-02T23:10:10.389Z,62.76
2019-01-02T23:13:06.795Z,62.72
2019-01-02T23:16:11.049Z,62.40
2019-01-02T23:18:52.369Z,71.84
2019-01-02T23:21:39.972Z,59.11
2019-01-02T23:24:41.149Z,58.03
2019-01-02T23:27:48.450Z,57.69
2019-01-02T23:30:32.483Z,60.10
2019-01-02T23:33:28.767Z,62.20
2019-01-02T23:36:14.706Z,60.69
2019-01-02T23:39:09.911Z,60.38
2019-01-02T23:42:10.644Z,61.13
2019-01-02T23:45:09.226Z,59.69
2019-01-02T23:47:56.990Z,60.46
2019-01-02T23:50:44.593Z,61.33
2019-01-02T23:53:32.448Z,59.51
2019-01-02T23:56:20.051Z,60.09
2019-01-02T23:59:07.820Z,60.10
